Hastings Natural History Reservation, California Weather observations

Data are for 10 minute period ending at time listed.
 Day   Time   Solar   Ave.   Ave.  Ave.  Vector  Max.   Baro.   Total    
  of    of     Rad.   Air    Rel.  Wind   Wind   Wind  Press.  Precip.   
Year   Day            Temp.  Hum.  Speed  Dir.   Gust                    
2014   (PST)  Kw/m2    F      %     mph   deg.    mph    mb.     in.     
-------------------------------------------------------------------------
 231   23:10   0.00   53.4    85    0.5   198     2.2   948.8    0.00 
 231   23:20   0.00   53.1    85    0.8    54     2.0   949.0    0.00 
 231   23:30   0.00   53.0    86    0.0     0     0.0   949.2    0.00 
 231   23:40   0.00   53.4    88    0.1   132     1.0   949.3    0.00 
 231   23:50   0.00   54.6    90    0.8    81     1.8   949.4    0.00 
 232    0:00   0.00   55.0    91    0.9    60     1.8   949.4    0.00 
 232    0:10   0.00   55.3    90    0.5    64     1.6   949.4    0.00 
 232    0:20   0.00   55.3    91    0.9    66     2.2   949.4    0.00 
 232    0:30   0.00   55.1    92    0.7    89     2.0   949.2    0.00 
 232    0:40   0.00   54.9    94    0.6   324     1.7   949.0    0.00 
 232    0:50   0.00   54.9    95    1.0    69     2.7   949.0    0.00 
 232    1:00   0.00   54.8    94    0.4    69     2.2   949.0    0.00 
 232    1:10   0.00   54.0    93    1.4    64     2.5   948.9    0.00 
 232    1:20   0.00   53.3    92    0.5    37     2.0   948.9    0.00 
 232    1:30   0.00   52.6    91    1.1    61     2.3   948.9    0.00 
 232    1:40   0.00   52.0    92    1.0    84     3.1   948.8    0.00 
 232    1:50   0.00   51.8    92    0.8    74     2.0   948.7    0.00 
 232    2:00   0.00   51.6    92    0.8    34     2.5   948.6    0.00 
 232    2:10   0.00   51.5    92    0.6   199     2.0   948.7    0.00 
 232    2:20   0.00   51.5    93    0.8   172     2.0   948.8    0.00 
 232    2:30   0.00   51.0    92    0.5    62     1.2   948.7    0.00 
 232    2:40   0.00   50.6    92    0.1   256     0.7   948.6    0.00 
 232    2:50   0.00   50.4    92    0.2    99     1.2   948.7    0.00 
 232    3:00   0.00   50.3    93    0.7   187     2.4   948.9    0.00 
 232    3:10   0.00   50.3    93    0.5   186     1.9   949.0    0.00 
 232    3:20   0.00   49.8    93    1.7    46     2.0   949.1    0.00 
 232    3:30   0.00   49.5    93    1.6    53     2.0   949.0    0.00 
 232    3:40   0.00   49.8    94    1.1    63     2.4   948.8    0.00 
 232    3:50   0.00   50.1    94    0.2    54     1.2   948.6    0.00 
 232    4:00   0.00   50.0    94    1.0   234     2.9   948.7    0.00 
 232    4:10   0.00   50.8    96    1.0    51     2.2   948.9    0.00 
 232    4:20   0.00   50.6    95    0.9    47     1.5   948.9    0.00 
 232    4:30   0.00   49.8    94    0.0    51     0.7   949.0    0.00 
 232    4:40   0.00   50.0    95    0.8    82     1.8   949.0    0.00 
 232    4:50   0.00   50.4    96    0.2    48     1.2   949.0    0.00 
 232    5:00   0.00   50.6    97    0.5    59     1.3   949.0    0.00 
 232    5:10   0.00   50.3    98    0.7    63     1.4   949.0    0.00 
 232    5:20   0.00   50.1    98    0.6    90     1.5   949.0    0.00 
 232    5:30   0.00   49.6    98    0.7    52     2.3   948.9    0.00 
 232    5:40   0.00   49.0    98    0.0    43     0.5   948.9    0.00 
 232    5:50   0.00   48.5    98    0.6    48     1.4   949.1    0.00 
 232    6:00   0.00   48.3    98    0.1    82     1.1   949.2    0.00 
 232    6:10   0.00   48.9    98    0.4    81     1.2   949.4    0.00 
 232    6:20   0.00   49.5    98    1.0    94     1.8   949.5    0.00 
 232    6:30   0.00   49.2    98    0.2    18     0.7   949.6    0.00 
 232    6:40   0.00   48.8    99    0.7    40     1.8   949.6    0.00 
 232    6:50   0.00   48.5    98    0.0     0     0.0   949.7    0.00 
 232    7:00   0.01   48.1    98    0.2    79     1.2   949.8    0.00 
 232    7:10   0.01   48.1    98    0.2    54     1.2   949.9    0.00 
 232    7:20   0.02   48.4    99    0.0   236     0.1   949.9    0.00 
 232    7:30   0.03   49.0    98    0.1    88     1.2   949.9    0.00 
 232    7:40   0.03   49.3    98    0.0     0     0.0   950.0    0.00 
 232    7:50   0.03   49.4    98    0.4    83     1.2   950.0    0.00 
 232    8:00   0.03   49.6    98    0.1   143     0.6   950.0    0.00 
 232    8:10   0.11   50.5    98    0.1   110     0.8   950.0    0.00 
 232    8:20   0.22   51.8    98    0.8   193     1.8   950.0    0.00 
 232    8:30   0.25   54.0    91    2.3   244     4.5   950.2    0.00 
 232    8:40   0.29   55.3    86    1.8   261     4.2   950.4    0.00 
 232    8:50   0.31   57.1    81    1.7   262     5.9   950.5    0.00 
 232    9:00   0.35   56.0    85    3.9   248     6.4   950.6    0.00 
 232    9:10   0.38   56.6    83    2.4   256     6.8   950.7    0.00 
 232    9:20   0.41   57.0    83    2.5   249     5.6   950.7    0.00 
 232    9:30   0.44   58.3    79    1.7   260     4.6   950.7    0.00 
 232    9:40   0.47   60.2    74    1.1   250     3.9   950.7    0.00 
 232    9:50   0.50   60.5    74    2.0   261     6.1   950.7    0.00 
 232   10:00   0.53   60.4    74    2.5   252     6.1   950.7    0.00 
 232   10:10   0.55   61.7    72    2.2   246     5.8   950.7    0.00 
 232   10:20   0.58   63.5    67    1.8   275     5.6   950.5    0.00 
 232   10:30   0.61   63.9    67    2.1   253     5.7   950.4    0.00 
 232   10:40   0.63   65.0    64    2.0   268     5.6   950.4    0.00 
 232   10:50   0.66   66.6    62    2.5   253     7.4   950.5    0.00 
 232   11:00   0.68   67.1    61    3.1   249     6.9   950.5    0.00 
 232   11:10   0.70   68.0    59    3.0   255     6.7   950.4    0.00 
 232   11:20   0.72   68.6    58    2.8   245     6.6   950.3    0.00 
 232   11:30   0.74   69.2    56    2.9   236     7.2   950.3    0.00 
 232   11:40   0.73   70.2    55    4.4   241     9.3   950.4    0.00 
 232   11:50   0.78   72.3    52    2.6   254     6.8   950.5    0.00 
 232   12:00   0.79   71.8    53    3.1   255    10.5   950.5    0.00 
 232   12:10   0.81   73.5    50    2.4   318     5.9   950.6    0.00 
 232   12:20   0.80   73.3    50    3.6   256     9.9   950.6    0.00 
 232   12:30   0.81   74.0    50    3.5   250     9.0   950.7    0.00 
 232   12:40   0.83   74.8    48    2.3   322     7.1   950.8    0.00 
 232   12:50   0.78   74.8    48    4.2   250    11.3   950.8    0.00 
 232   13:00   0.83   74.8    48    3.8   243     9.4   950.7    0.00 
 232   13:10   0.78   74.6    48    5.1   244    10.7   950.6    0.00 
 232   13:20   0.80   76.2    46    4.1   245    11.3   950.6    0.00 
 232   13:30   0.83   77.5    44    2.7   292     7.2   950.6    0.00 
 232   13:40   0.82   77.9    44    2.9   268     9.3   950.7    0.00 
 232   13:50   0.84   79.4    42    1.8   307     8.3   950.7    0.00 
 232   14:00   0.80   78.2    43    3.8   287     8.3   950.7    0.00 
 232   14:10   0.81   78.9    42    3.0   261     8.6   950.7    0.00 
 232   14:20   0.79   78.5    42    4.4   254     9.5   950.7    0.00 
 232   14:30   0.76   77.7    42    6.7   243    11.8   950.6    0.00 
 232   14:40   0.73   78.6    40    5.1   249    11.2   950.5    0.00 
 232   14:50   0.75   79.1    40    3.5   255    11.0   950.4    0.00 
 232   15:00   0.74   79.6    40    3.9   254     8.8   950.2    0.00 
 232   15:10   0.72   80.0    40    3.5   257     9.0   950.2    0.00 
 232   15:20   0.75   81.0    40    2.5   274    10.2   950.1    0.00 
 232   15:30   0.70   81.5    39    3.3   266    10.7   949.9    0.00 
 232   15:40   0.68   81.5    39    3.3   264     8.0   949.8    0.00 
 232   15:50   0.67   80.5    40    4.1   255    10.3   949.7    0.00 
 232   16:00   0.62   81.0    40    4.0   256    10.6   949.6    0.00 
 232   16:10   0.59   79.8    41    4.5   252    11.3   949.6    0.00 
 232   16:20   0.56   79.9    41    4.4   257    11.8   949.8    0.00 
 232   16:30   0.52   79.0    42    3.7   259    10.7   949.9    0.00 
 232   16:40   0.51   78.6    43    4.2   252    10.8   949.9    0.00 
 232   16:50   0.44   78.1    43    2.8   272    11.0   950.0    0.00 
 232   17:00   0.41   77.9    44    2.8   268     9.2   950.0    0.00 
 232   17:10   0.39   78.7    42    2.2   273     6.3   950.0    0.00 
 232   17:20   0.47   76.8    45    3.9   257     8.0   950.0    0.00 
 232   17:30   0.40   75.9    46    3.8   269     8.0   949.9    0.00 
 232   17:40   0.38   76.1    46    3.8   279     8.8   949.9    0.00 
 232   17:50   0.38   76.2    46    3.2   255     7.8   949.9    0.00 
 232   18:00   0.34   75.6    46    2.9   272     8.8   949.7    0.00 
 232   18:10   0.31   75.8    46    2.2   271     7.2   949.6    0.00 
 232   18:20   0.28   74.3    48    2.7   257     6.7   949.6    0.00 
 232   18:30   0.24   72.6    51    3.2   251     8.3   949.6    0.00 
 232   18:40   0.21   71.3    53    2.2   268     6.8   949.6    0.00 
 232   18:50   0.11   69.3    57    4.1   249     8.3   949.4    0.00 
 232   19:00   0.03   68.2    59    2.9   252     6.2   949.4    0.00 
 232   19:10   0.03   67.4    60    3.3   245     6.0   949.3    0.00 
 232   19:20   0.02   66.6    62    2.5   250     4.7   949.4    0.00 
 232   19:30   0.01   65.9    63    2.0   253     4.5   949.4    0.00 
 232   19:40   0.01   64.8    66    2.1   254     5.0   949.5    0.00 
 232   19:50   0.00   64.1    68    1.1   234     2.9   949.5    0.00 
 232   20:00   0.00   63.1    70    1.6   213     2.8   949.5    0.00 
 232   20:10   0.00   62.4    71    0.8   219     1.8   949.7    0.00 
 232   20:20   0.00   62.1    72    0.3   242     1.4   949.8    0.00 
 232   20:30   0.00   61.6    73    0.2   248     1.8   950.0    0.00 
 232   20:40   0.00   60.7    76    1.0   223     2.3   949.9    0.00 
 232   20:50   0.00   60.2    77    0.5   221     1.3   949.8    0.00 
 232   21:00   0.00   59.6    77    0.0     0     0.0   949.9    0.00 
 232   21:10   0.00   59.3    76    0.1   280     0.7   950.0    0.00 
 232   21:20   0.00   58.8    77    0.6   241     2.1   950.3    0.00 
 232   21:30   0.00   58.2    81    1.9   242     3.2   950.6    0.00 
 232   21:40   0.00   57.8    83    0.8   243     2.8   950.7    0.00 
 232   21:50   0.00   57.4    85    0.7   220     2.0   950.8    0.00 
 232   22:00   0.00   57.0    86    0.0     0     0.0   950.8    0.00 
 232   22:10   0.00   56.5    85    0.0   165     0.6   950.9    0.00 
 232   22:20   0.00   56.1    85    0.8    58     2.2   950.9    0.00 
 232   22:30   0.00   55.7    85    0.8    61     2.4   950.9    0.00 
 232   22:40   0.00   55.5    85    0.0   190     0.6   950.8    0.00 
 232   22:50   0.00   55.2    84    0.0     0     0.0   950.9    0.00 
 232   23:00   0.00   55.0    84    0.0     0     0.0   950.9    0.00 

Return to Hastings Natural History Reservation graphs page.


Western Regional Climate Center,wrcc@dri.edu